Wetterdaten: Woche 16.02.15 - 22.02.15 (KW8)
Datum Zeit Temp. A. Feuchte A. Luftdruck Regen Wind Richtung Sonnenschein ET UV Solar Taupunkt Windchill Windben
16.02.2015 00:00 2,1 C 89 % 1018,5 hPa 0,0 l/m 3,3 km/h (1 Bft) O-SO 0,00 h 0,000 mm 0,0 UV-I 0 W/m 0,5 C 2,1 C 7,7 km/h (2 Bft)
16.02.2015 01:00 1,9 C 90 % 1018,8 hPa 0,0 l/m 3,8 km/h (1 Bft) O-SO 0,00 h 0,000 mm 0,0 UV-I 0 W/m 0,4 C 1,7 C 9,1 km/h (2 Bft)
16.02.2015 02:00 1,8 C 90 % 1019,0 hPa 0,0 l/m 6,5 km/h (2 Bft) O 0,00 h 0,000 mm 0,0 UV-I 0 W/m 0,4 C 0,6 C 12,6 km/h (2 Bft)
16.02.2015 03:00 1,9 C 90 % 1019,3 hPa 0,0 l/m 4,3 km/h (1 Bft) O 0,00 h 0,000 mm 0,0 UV-I 0 W/m 0,4 C 1,5 C 9,3 km/h (2 Bft)
16.02.2015 04:00 1,8 C 89 % 1019,5 hPa 0,0 l/m 6,5 km/h (2 Bft) O 0,00 h 0,000 mm 0,0 UV-I 0 W/m 0,2 C 0,9 C 13,1 km/h (3 Bft)
16.02.2015 05:00 1,6 C 90 % 1019,8 hPa 0,0 l/m 2,5 km/h (1 Bft) O-SO 0,00 h 0,000 mm 0,0 UV-I 0 W/m 0,1 C 1,5 C 6,6 km/h (2 Bft)
16.02.2015 06:00 1,4 C 89 % 1020,1 hPa 0,0 l/m 2,4 km/h (1 Bft) O-SO 0,00 h 0,000 mm 0,0 UV-I 0 W/m -0,2 C 1,3 C 5,5 km/h (2 Bft)
16.02.2015 07:00 1,1 C 90 % 1020,6 hPa 0,0 l/m 2,3 km/h (1 Bft) O 0,00 h 0,000 mm 0,0 UV-I 15 W/m -0,5 C 1,0 C 5,4 km/h (2 Bft)
16.02.2015 08:00 1,0 C 89 % 1020,9 hPa 0,0 l/m 2,4 km/h (1 Bft) O-SO 0,65 h 0,000 mm 0,5 UV-I 74 W/m -0,5 C 1,0 C 5,8 km/h (2 Bft)
16.02.2015 09:00 1,6 C 87 % 1021,0 hPa 0,0 l/m 4,5 km/h (1 Bft) O 1,00 h 0,025 mm 0,7 UV-I 187 W/m -0,3 C 1,3 C 10,1 km/h (2 Bft)
16.02.2015 10:00 2,2 C 85 % 1021,2 hPa 0,0 l/m 5,3 km/h (1 Bft) O 1,00 h 0,076 mm 1,2 UV-I 335 W/m -0,1 C 1,6 C 11,2 km/h (2 Bft)
16.02.2015 11:00 3,0 C 82 % 1021,4 hPa 0,0 l/m 5,5 km/h (2 Bft) O-NO 1,00 h 0,127 mm 1,6 UV-I 440 W/m 0,2 C 2,1 C 11,2 km/h (2 Bft)
16.02.2015 12:00 3,3 C 81 % 1021,6 hPa 0,0 l/m 5,5 km/h (2 Bft) O-SO 1,00 h 0,178 mm 1,7 UV-I 462 W/m 0,4 C 2,9 C 11,9 km/h (2 Bft)
16.02.2015 13:00 3,6 C 81 % 1021,4 hPa 0,0 l/m 7,0 km/h (2 Bft) O-SO 1,00 h 0,178 mm 1,5 UV-I 429 W/m 0,6 C 2,5 C 13,8 km/h (3 Bft)
16.02.2015 14:00 4,3 C 79 % 1021,2 hPa 0,0 l/m 4,0 km/h (1 Bft) SO 1,00 h 0,178 mm 1,1 UV-I 355 W/m 0,9 C 4,0 C 8,3 km/h (2 Bft)
16.02.2015 15:00 4,8 C 78 % 1021,1 hPa 0,0 l/m 1,5 km/h (1 Bft) SO 1,00 h 0,152 mm 0,7 UV-I 227 W/m 1,2 C 4,8 C 4,2 km/h (1 Bft)
16.02.2015 16:00 4,8 C 78 % 1021,1 hPa 0,0 l/m 0,8 km/h (0 Bft) SO 0,68 h 0,102 mm 0,0 UV-I 72 W/m 1,3 C 4,8 C 2,7 km/h (1 Bft)
16.02.2015 17:00 4,1 C 79 % 1021,3 hPa 0,0 l/m 0,5 km/h (0 Bft) O-SO 0,00 h 0,025 mm 0,0 UV-I 12 W/m 0,9 C 4,1 C 2,1 km/h (1 Bft)
16.02.2015 18:00 2,7 C 81 % 1021,7 hPa 0,0 l/m 0,1 km/h (0 Bft) N 0,00 h 0,000 mm 0,0 UV-I 0 W/m -0,2 C 2,7 C 0,8 km/h (0 Bft)
16.02.2015 19:00 0,7 C 86 % 1021,9 hPa 0,0 l/m 0,2 km/h (0 Bft) N 0,00 h 0,000 mm 0,0 UV-I 0 W/m -1,4 C 0,7 C 0,9 km/h (0 Bft)
16.02.2015 20:00 -0,7 C 90 % 1022,2 hPa 0,0 l/m 0,5 km/h (0 Bft) N 0,00 h 0,000 mm 0,0 UV-I 0 W/m -2,2 C -0,7 C 1,3 km/h (1 Bft)
16.02.2015 21:00 -1,5 C 91 % 1022,6 hPa 0,0 l/m 0,1 km/h (0 Bft) N 0,00 h 0,000 mm 0,0 UV-I 0 W/m -2,8 C -1,5 C 1,0 km/h (0 Bft)
16.02.2015 22:00 -2,1 C 92 % 1022,9 hPa 0,0 l/m 0,6 km/h (0 Bft) O 0,00 h 0,000 mm 0,0 UV-I 0 W/m -3,3 C -2,1 C 2,6 km/h (1 Bft)
16.02.2015 23:00 -2,6 C 93 % 1023,3 hPa 0,0 l/m 0,1 km/h (0 Bft) N 0,00 h 0,000 mm 0,0 UV-I 0 W/m -3,6 C -2,6 C 1,3 km/h (1 Bft)
17.02.2015 00:00 -2,8 C 93 % 1023,8 hPa 0,0 l/m 0,6 km/h (0 Bft) N 0,00 h 0,000 mm 0,0 UV-I 0 W/m -3,7 C -2,8 C 2,2 km/h (1 Bft)
17.02.2015 01:00 -2,4 C 95 % 1024,3 hPa 0,0 l/m 2,3 km/h (1 Bft) O-NO 0,00 h 0,000 mm 0,0 UV-I 0 W/m -3,2 C -2,5 C 6,2 km/h (2 Bft)
17.02.2015 02:00 -1,1 C 95 % 1024,7 hPa 0,0 l/m 3,0 km/h (1 Bft) O 0,00 h 0,000 mm 0,0 UV-I 0 W/m -1,8 C -1,2 C 7,6 km/h (2 Bft)
17.02.2015 03:00 -1,4 C 92 % 1024,9 hPa 0,0 l/m 2,0 km/h (1 Bft) O-NO 0,00 h 0,000 mm 0,0 UV-I 0 W/m -2,5 C -1,4 C 4,9 km/h (1 Bft)
17.02.2015 04:00 -2,5 C 90 % 1025,4 hPa 0,0 l/m 0,8 km/h (0 Bft) O 0,00 h 0,000 mm 0,0 UV-I 0 W/m -3,9 C -2,5 C 2,7 km/h (1 Bft)
17.02.2015 05:00 -3,7 C 90 % 1026,1 hPa 0,0 l/m 0,3 km/h (0 Bft) N 0,00 h 0,000 mm 0,0 UV-I 0 W/m -5,1 C -3,7 C 1,3 km/h (1 Bft)
17.02.2015 06:00 -4,5 C 92 % 1026,9 hPa 0,0 l/m 0,5 km/h (0 Bft) N 0,00 h 0,000 mm 0,0 UV-I 0 W/m -5,7 C -4,5 C 2,0 km/h (1 Bft)
17.02.2015 07:00 -4,8 C 93 % 1027,9 hPa 0,0 l/m 0,1 km/h (0 Bft) N 0,00 h 0,000 mm 0,0 UV-I 15 W/m -5,8 C -4,8 C 0,8 km/h (0 Bft)
17.02.2015 08:00 -3,9 C 95 % 1029,0 hPa 0,0 l/m 0,1 km/h (0 Bft) N 0,68 h 0,000 mm 0,5 UV-I 98 W/m -4,6 C -3,9 C 0,4 km/h (0 Bft)
17.02.2015 09:00 -0,1 C 91 % 1029,9 hPa 0,0 l/m 2,4 km/h (1 Bft) O 1,00 h 0,025 mm 0,7 UV-I 262 W/m -1,4 C -0,3 C 5,4 km/h (2 Bft)
17.02.2015 10:00 1,8 C 85 % 1030,6 hPa 0,0 l/m 3,4 km/h (1 Bft) O 1,00 h 0,102 mm 1,3 UV-I 389 W/m -0,4 C 1,8 C 8,0 km/h (2 Bft)
17.02.2015 11:00 3,3 C 80 % 1031,3 hPa 0,0 l/m 1,8 km/h (1 Bft) O-NO 1,00 h 0,152 mm 1,6 UV-I 457 W/m 0,2 C 3,3 C 4,5 km/h (1 Bft)
17.02.2015 12:00 3,8 C 78 % 1031,7 hPa 0,0 l/m 1,5 km/h (1 Bft) O-SO 1,00 h 0,178 mm 1,8 UV-I 477 W/m 0,4 C 3,8 C 3,8 km/h (1 Bft)
17.02.2015 13:00 4,8 C 74 % 1031,8 hPa 0,0 l/m 2,1 km/h (1 Bft) SO 1,00 h 0,178 mm 1,6 UV-I 447 W/m 0,5 C 4,7 C 4,5 km/h (1 Bft)
17.02.2015 14:00 5,5 C 73 % 1032,1 hPa 0,0 l/m 3,5 km/h (1 Bft) O 1,00 h 0,178 mm 1,2 UV-I 363 W/m 0,9 C 5,3 C 7,2 km/h (2 Bft)
17.02.2015 15:00 3,7 C 78 % 1032,8 hPa 0,0 l/m 6,7 km/h (2 Bft) O 1,00 h 0,152 mm 0,7 UV-I 233 W/m 0,3 C 2,5 C 12,0 km/h (2 Bft)
17.02.2015 16:00 1,9 C 83 % 1033,4 hPa 0,0 l/m 8,5 km/h (2 Bft) O-NO 0,75 h 0,102 mm 0,5 UV-I 78 W/m -0,6 C -0,2 C 14,4 km/h (3 Bft)
17.02.2015 17:00 0,3 C 88 % 1034,2 hPa 0,0 l/m 5,0 km/h (1 Bft) O-NO 0,00 h 0,051 mm 0,0 UV-I 13 W/m -1,4 C -0,8 C 8,9 km/h (2 Bft)
17.02.2015 18:00 -0,6 C 90 % 1035,5 hPa 0,0 l/m 3,7 km/h (1 Bft) O 0,00 h 0,000 mm 0,0 UV-I 0 W/m -1,9 C -0,6 C 7,5 km/h (2 Bft)
17.02.2015 19:00 -1,2 C 91 % 1036,5 hPa 0,0 l/m 0,0 km/h (0 Bft) NO 0,00 h 0,000 mm 0,0 UV-I 0 W/m -2,4 C -1,2 C 0,2 km/h (0 Bft)
17.02.2015 20:00 -1,6 C 93 % 1037,5 hPa 0,0 l/m 0,1 km/h (0 Bft) O-SO 0,00 h 0,000 mm 0,0 UV-I 0 W/m -2,6 C -1,6 C 0,6 km/h (0 Bft)
17.02.2015 21:00 -1,3 C 94 % 1038,4 hPa 0,0 l/m 0,0 km/h (0 Bft) O-SO 0,00 h 0,000 mm 0,0 UV-I 0 W/m -2,1 C -1,3 C 0,0 km/h (0 Bft)
17.02.2015 22:00 -0,6 C 94 % 1039,0 hPa 0,0 l/m 2,6 km/h (1 Bft) N-NO 0,00 h 0,000 mm 0,0 UV-I 0 W/m -1,4 C -0,8 C 4,4 km/h (1 Bft)
17.02.2015 23:00 0,1 C 93 % 1039,4 hPa 0,0 l/m 6,7 km/h (2 Bft) N 0,00 h 0,000 mm 0,0 UV-I 0 W/m -0,9 C -1,1 C 10,5 km/h (2 Bft)
18.02.2015 00:00 -0,1 C 92 % 1040,0 hPa 0,0 l/m 0,7 km/h (0 Bft) N 0,00 h 0,000 mm 0,0 UV-I 0 W/m -1,2 C -0,1 C 1,6 km/h (1 Bft)
18.02.2015 01:00 0,0 C 92 % 1040,0 hPa 0,0 l/m 0,5 km/h (0 Bft) N 0,00 h 0,000 mm 0,0 UV-I 0 W/m -1,1 C 0,0 C 1,7 km/h (1 Bft)
18.02.2015 02:00 0,1 C 91 % 1040,2 hPa 0,0 l/m 0,4 km/h (0 Bft) N 0,00 h 0,000 mm 0,0 UV-I 0 W/m -1,1 C 0,1 C 1,4 km/h (1 Bft)
18.02.2015 03:00 0,1 C 91 % 1040,1 hPa 0,0 l/m 1,2 km/h (1 Bft) N-NO 0,00 h 0,000 mm 0,0 UV-I 0 W/m -1,2 C 0,1 C 3,2 km/h (1 Bft)
18.02.2015 04:00 0,1 C 90 % 1040,2 hPa 0,0 l/m 0,5 km/h (0 Bft) N 0,00 h 0,000 mm 0,0 UV-I 0 W/m -1,3 C 0,1 C 1,4 km/h (1 Bft)
18.02.2015 05:00 0,1 C 90 % 1040,5 hPa 0,0 l/m 0,9 km/h (0 Bft) N-NO 0,00 h 0,000 mm 0,0 UV-I 0 W/m -1,3 C 0,1 C 2,3 km/h (1 Bft)
18.02.2015 06:00 0,1 C 90 % 1040,9 hPa 0,0 l/m 1,5 km/h (1 Bft) N 0,00 h 0,000 mm 0,0 UV-I 0 W/m -1,3 C 0,1 C 3,3 km/h (1 Bft)
18.02.2015 07:00 0,1 C 90 % 1041,2 hPa 0,0 l/m 2,6 km/h (1 Bft) N 0,00 h 0,000 mm 0,0 UV-I 7 W/m -1,4 C 0,0 C 5,0 km/h (1 Bft)
18.02.2015 08:00 0,1 C 88 % 1041,5 hPa 0,0 l/m 1,0 km/h (0 Bft) N 0,00 h 0,000 mm 0,0 UV-I 22 W/m -1,6 C 0,1 C 2,4 km/h (1 Bft)
18.02.2015 09:00 0,2 C 87 % 1041,7 hPa 0,0 l/m 1,4 km/h (1 Bft) S-SO 0,60 h 0,000 mm 0,0 UV-I 51 W/m -1,7 C 0,2 C 3,1 km/h (1 Bft)
18.02.2015 10:00 0,3 C 87 % 1041,8 hPa 0,0 l/m 0,6 km/h (0 Bft) N 1,00 h 0,025 mm 0,5 UV-I 68 W/m -1,6 C 0,3 C 1,7 km/h (1 Bft)
18.02.2015 11:00 0,7 C 85 % 1041,8 hPa 0,0 l/m 0,5 km/h (0 Bft) N 1,00 h 0,026 mm 0,7 UV-I 108 W/m -1,5 C 0,7 C 1,6 km/h (1 Bft)
18.02.2015 12:00 0,8 C 85 % 1041,3 hPa 0,0 l/m 0,4 km/h (0 Bft) N 1,00 h 0,025 mm 0,7 UV-I 116 W/m -1,4 C 0,8 C 1,5 km/h (1 Bft)
18.02.2015 13:00 1,0 C 84 % 1040,8 hPa 0,0 l/m 1,1 km/h (1 Bft) N 1,00 h 0,051 mm 0,7 UV-I 125 W/m -1,5 C 1,0 C 2,6 km/h (1 Bft)
18.02.2015 14:00 1,1 C 83 % 1040,3 hPa 0,0 l/m 0,9 km/h (0 Bft) SO 1,00 h 0,051 mm 0,6 UV-I 115 W/m -1,4 C 1,1 C 2,7 km/h (1 Bft)
18.02.2015 15:00 0,9 C 82 % 1039,7 hPa 0,0 l/m 1,5 km/h (1 Bft) S-SO 1,00 h 0,051 mm 0,5 UV-I 102 W/m -1,7 C 0,9 C 3,0 km/h (1 Bft)
18.02.2015 16:00 0,8 C 82 % 1039,4 hPa 0,0 l/m 0,6 km/h (0 Bft) N 0,37 h 0,025 mm 0,0 UV-I 41 W/m -1,8 C 0,8 C 1,8 km/h (1 Bft)
18.02.2015 17:00 0,5 C 84 % 1039,2 hPa 0,0 l/m 1,0 km/h (0 Bft) N 0,00 h 0,025 mm 0,0 UV-I 9 W/m -1,9 C 0,5 C 2,0 km/h (1 Bft)
18.02.2015 18:00 0,2 C 85 % 1039,1 hPa 0,0 l/m 1,3 km/h (1 Bft) S 0,00 h 0,000 mm 0,0 UV-I 0 W/m -2,0 C 0,2 C 3,0 km/h (1 Bft)
18.02.2015 19:00 -0,2 C 86 % 1038,8 hPa 0,0 l/m 1,0 km/h (0 Bft) O-SO 0,00 h 0,000 mm 0,0 UV-I 0 W/m -2,2 C -0,2 C 2,6 km/h (1 Bft)
18.02.2015 20:00 -0,4 C 87 % 1038,6 hPa 0,0 l/m 0,5 km/h (0 Bft) N 0,00 h 0,000 mm 0,0 UV-I 0 W/m -2,3 C -0,4 C 1,7 km/h (1 Bft)
18.02.2015 21:00 -0,6 C 87 % 1038,5 hPa 0,0 l/m 1,1 km/h (1 Bft) N 0,00 h 0,000 mm 0,0 UV-I 0 W/m -2,5 C -0,6 C 2,5 km/h (1 Bft)
18.02.2015 22:00 -0,9 C 88 % 1038,3 hPa 0,0 l/m 2,2 km/h (1 Bft) W-SW 0,00 h 0,000 mm 0,0 UV-I 0 W/m -2,6 C -0,9 C 4,5 km/h (1 Bft)
18.02.2015 23:00 -1,3 C 90 % 1038,2 hPa 0,0 l/m 4,0 km/h (1 Bft) S 0,00 h 0,000 mm 0,0 UV-I 0 W/m -2,7 C -1,4 C 6,7 km/h (2 Bft)
19.02.2015 00:00 -1,8 C 91 % 1037,8 hPa 0,0 l/m 4,3 km/h (1 Bft) S-SW 0,00 h 0,000 mm 0,0 UV-I 0 W/m -3,0 C -2,0 C 7,4 km/h (2 Bft)
19.02.2015 01:00 -2,0 C 93 % 1037,1 hPa 0,0 l/m 5,6 km/h (2 Bft) S 0,00 h 0,000 mm 0,0 UV-I 0 W/m -2,9 C -2,4 C 8,9 km/h (2 Bft)
19.02.2015 02:00 -2,2 C 94 % 1036,5 hPa 0,0 l/m 7,0 km/h (2 Bft) S 0,00 h 0,000 mm 0,0 UV-I 0 W/m -3,1 C -3,5 C 11,2 km/h (2 Bft)
19.02.2015 03:00 -2,3 C 95 % 1035,7 hPa 0,0 l/m 4,2 km/h (1 Bft) W-SW 0,00 h 0,000 mm 0,0 UV-I 0 W/m -3,0 C -2,4 C 7,3 km/h (2 Bft)
19.02.2015 04:00 -2,5 C 95 % 1035,4 hPa 0,0 l/m 5,3 km/h (1 Bft) SW 0,00 h 0,000 mm 0,0 UV-I 0 W/m -3,1 C -2,8 C 8,9 km/h (2 Bft)
19.02.2015 05:00 -2,6 C 96 % 1034,9 hPa 0,0 l/m 6,0 km/h (2 Bft) S 0,00 h 0,000 mm 0,0 UV-I 0 W/m -3,2 C -3,5 C 9,4 km/h (2 Bft)
19.02.2015 06:00 -2,7 C 96 % 1034,6 hPa 0,0 l/m 3,3 km/h (1 Bft) S 0,00 h 0,000 mm 0,0 UV-I 0 W/m -3,3 C -2,9 C 6,1 km/h (2 Bft)
19.02.2015 07:00 -2,8 C 97 % 1034,4 hPa 0,0 l/m 5,3 km/h (1 Bft) W-SW 0,00 h 0,000 mm 0,0 UV-I 9 W/m -3,3 C -3,0 C 8,7 km/h (2 Bft)
19.02.2015 08:00 -3,0 C 97 % 1034,4 hPa 0,0 l/m 5,8 km/h (2 Bft) SW 0,00 h 0,000 mm 0,0 UV-I 30 W/m -3,4 C -3,5 C 9,7 km/h (2 Bft)
19.02.2015 09:00 -2,9 C 97 % 1034,2 hPa 0,0 l/m 4,8 km/h (1 Bft) S 0,72 h 0,000 mm 0,5 UV-I 59 W/m -3,4 C -3,2 C 8,3 km/h (2 Bft)
19.02.2015 10:00 -2,8 C 97 % 1034,0 hPa 0,0 l/m 4,9 km/h (1 Bft) W-SW 1,00 h 0,025 mm 0,6 UV-I 86 W/m -3,2 C -3,1 C 8,2 km/h (2 Bft)
19.02.2015 11:00 -2,5 C 96 % 1033,8 hPa 0,0 l/m 5,7 km/h (2 Bft) W-SW 1,00 h 0,025 mm 0,7 UV-I 101 W/m -3,0 C -3,1 C 8,8 km/h (2 Bft)
19.02.2015 12:00 -2,4 C 96 % 1033,2 hPa 0,0 l/m 7,7 km/h (2 Bft) S 1,00 h 0,025 mm 0,8 UV-I 114 W/m -2,9 C -4,0 C 12,1 km/h (2 Bft)
19.02.2015 13:00 -2,4 C 95 % 1032,3 hPa 0,0 l/m 8,3 km/h (2 Bft) S 1,00 h 0,025 mm 0,7 UV-I 106 W/m -3,1 C -4,6 C 12,6 km/h (3 Bft)
19.02.2015 14:00 -2,4 C 95 % 1031,4 hPa 0,0 l/m 6,5 km/h (2 Bft) S 1,00 h 0,025 mm 0,5 UV-I 79 W/m -3,1 C -3,5 C 10,5 km/h (2 Bft)
19.02.2015 15:00 -2,3 C 94 % 1030,8 hPa 0,0 l/m 7,0 km/h (2 Bft) SW 0,68 h 0,025 mm 0,0 UV-I 58 W/m -3,1 C -3,5 C 11,9 km/h (2 Bft)
19.02.2015 16:00 -2,7 C 94 % 1030,2 hPa 0,0 l/m 8,8 km/h (2 Bft) S 0,00 h 0,025 mm 0,0 UV-I 24 W/m -3,5 C -5,3 C 13,9 km/h (3 Bft)
19.02.2015 17:00 -3,0 C 95 % 1029,8 hPa 0,0 l/m 10,0 km/h (2 Bft) S 0,00 h 0,000 mm 0,0 UV-I 7 W/m -3,7 C -6,7 C 15,1 km/h (3 Bft)
19.02.2015 18:00 -3,2 C 96 % 1029,7 hPa 0,0 l/m 8,6 km/h (2 Bft) S 0,00 h 0,000 mm 0,0 UV-I 0 W/m -3,8 C -5,8 C 13,8 km/h (3 Bft)
19.02.2015 19:00 -3,1 C 95 % 1029,0 hPa 0,0 l/m 6,6 km/h (2 Bft) S 0,00 h 0,000 mm 0,0 UV-I 0 W/m -3,7 C -4,0 C 10,8 km/h (2 Bft)
19.02.2015 20:00 -2,9 C 95 % 1028,6 hPa 0,0 l/m 6,6 km/h (2 Bft) SW 0,00 h 0,000 mm 0,0 UV-I 0 W/m -3,6 C -4,2 C 10,9 km/h (2 Bft)
19.02.2015 21:00 -2,9 C 94 % 1028,2 hPa 0,0 l/m 6,5 km/h (2 Bft) S 0,00 h 0,000 mm 0,0 UV-I 0 W/m -3,7 C -4,1 C 10,5 km/h (2 Bft)
19.02.2015 22:00 -2,8 C 93 % 1027,7 hPa 0,0 l/m 5,6 km/h (2 Bft) S 0,00 h 0,003 mm 0,0 UV-I 0 W/m -3,7 C -3,2 C 9,1 km/h (2 Bft)
19.02.2015 23:00 -2,5 C 94 % 1027,3 hPa 0,0 l/m 4,2 km/h (1 Bft) S-SW 0,00 h 0,000 mm 0,0 UV-I 0 W/m -3,4 C -2,5 C 7,5 km/h (2 Bft)
20.02.2015 00:00 -2,3 C 95 % 1026,9 hPa 0,0 l/m 5,4 km/h (2 Bft) SW 0,00 h 0,000 mm 0,0 UV-I 0 W/m -3,0 C -2,7 C 9,7 km/h (2 Bft)
20.02.2015 01:00 -2,2 C 95 % 1026,3 hPa 0,0 l/m 4,2 km/h (1 Bft) SW 0,00 h 0,000 mm 0,0 UV-I 0 W/m -2,9 C -2,4 C 7,4 km/h (2 Bft)
20.02.2015 02:00 -2,2 C 95 % 1025,7 hPa 0,0 l/m 5,1 km/h (1 Bft) S 0,00 h 0,000 mm 0,0 UV-I 0 W/m -2,8 C -2,5 C 8,5 km/h (2 Bft)
20.02.2015 03:00 -2,2 C 96 % 1025,1 hPa 0,0 l/m 5,2 km/h (1 Bft) S-SW 0,00 h 0,000 mm 0,0 UV-I 0 W/m -2,8 C -2,6 C 8,7 km/h (2 Bft)
20.02.2015 04:00 -2,3 C 96 % 1024,7 hPa 0,0 l/m 6,1 km/h (2 Bft) S 0,00 h 0,000 mm 0,0 UV-I 0 W/m -2,8 C -2,8 C 9,9 km/h (2 Bft)
20.02.2015 05:00 -2,2 C 96 % 1024,2 hPa 0,0 l/m 5,6 km/h (2 Bft) SW 0,00 h 0,000 mm 0,0 UV-I 0 W/m -2,8 C -2,7 C 9,5 km/h (2 Bft)
20.02.2015 06:00 -2,1 C 96 % 1023,7 hPa 0,0 l/m 6,0 km/h (2 Bft) SW 0,00 h 0,000 mm 0,0 UV-I 0 W/m -2,7 C -2,9 C 10,0 km/h (2 Bft)
20.02.2015 07:00 -2,1 C 97 % 1023,6 hPa 0,0 l/m 5,3 km/h (1 Bft) S 0,00 h 0,000 mm 0,0 UV-I 6 W/m -2,5 C -2,6 C 7,9 km/h (2 Bft)
20.02.2015 08:00 -2,0 C 97 % 1023,2 hPa 0,0 l/m 5,1 km/h (1 Bft) S 0,22 h 0,000 mm 0,0 UV-I 38 W/m -2,4 C -2,3 C 7,8 km/h (2 Bft)
20.02.2015 09:00 -1,9 C 97 % 1022,6 hPa 0,0 l/m 6,5 km/h (2 Bft) S 1,00 h 0,025 mm 0,6 UV-I 94 W/m -2,3 C -3,1 C 10,6 km/h (2 Bft)
20.02.2015 10:00 -1,2 C 94 % 1022,1 hPa 0,0 l/m 8,2 km/h (2 Bft) S 1,00 h 0,025 mm 1,0 UV-I 185 W/m -2,1 C -3,2 C 12,4 km/h (2 Bft)
20.02.2015 11:00 0,6 C 89 % 1021,5 hPa 0,0 l/m 6,2 km/h (2 Bft) S 1,00 h 0,051 mm 1,7 UV-I 367 W/m -1,0 C -0,2 C 9,9 km/h (2 Bft)
20.02.2015 12:00 3,0 C 82 % 1020,4 hPa 0,0 l/m 7,8 km/h (2 Bft) S-SO 1,00 h 0,128 mm 1,9 UV-I 490 W/m 0,3 C 1,4 C 11,7 km/h (2 Bft)
20.02.2015 13:00 4,7 C 75 % 1019,1 hPa 0,0 l/m 8,0 km/h (2 Bft) S 1,00 h 0,203 mm 1,8 UV-I 466 W/m 0,8 C 3,1 C 12,7 km/h (3 Bft)
20.02.2015 14:00 6,2 C 70 % 1017,8 hPa 0,0 l/m 7,1 km/h (2 Bft) S-SO 1,00 h 0,203 mm 1,3 UV-I 392 W/m 1,1 C 5,1 C 11,0 km/h (2 Bft)
20.02.2015 15:00 7,1 C 64 % 1016,6 hPa 0,0 l/m 9,8 km/h (2 Bft) S 1,00 h 0,178 mm 0,8 UV-I 278 W/m 0,8 C 4,6 C 14,5 km/h (3 Bft)
20.02.2015 16:00 7,0 C 62 % 1015,5 hPa 0,0 l/m 7,2 km/h (2 Bft) S 0,82 h 0,152 mm 0,5 UV-I 103 W/m 0,3 C 6,0 C 11,2 km/h (2 Bft)
20.02.2015 17:00 5,5 C 66 % 1014,7 hPa 0,0 l/m 2,1 km/h (1 Bft) S-SO 0,00 h 0,076 mm 0,0 UV-I 15 W/m -0,3 C 5,5 C 4,1 km/h (1 Bft)
20.02.2015 18:00 3,5 C 73 % 1014,1 hPa 0,0 l/m 0,6 km/h (0 Bft) N 0,00 h 0,025 mm 0,0 UV-I 0 W/m -0,9 C 3,5 C 1,5 km/h (1 Bft)
20.02.2015 19:00 1,4 C 79 % 1013,2 hPa 0,0 l/m 0,0 km/h (0 Bft) N 0,00 h 0,025 mm 0,0 UV-I 0 W/m -1,7 C 1,4 C 0,0 km/h (0 Bft)
20.02.2015 20:00 -0,3 C 85 % 1012,3 hPa 0,0 l/m 0,7 km/h (0 Bft) N 0,00 h 0,000 mm 0,0 UV-I 0 W/m -2,4 C -0,3 C 1,5 km/h (1 Bft)
20.02.2015 21:00 -1,6 C 88 % 1011,4 hPa 0,0 l/m 0,3 km/h (0 Bft) N 0,00 h 0,000 mm 0,0 UV-I 0 W/m -3,3 C -1,6 C 1,1 km/h (0 Bft)
20.02.2015 22:00 -2,3 C 89 % 1010,4 hPa 0,0 l/m 0,0 km/h (0 Bft) N 0,00 h 0,000 mm 0,0 UV-I 0 W/m -3,9 C -2,3 C 0,1 km/h (0 Bft)
20.02.2015 23:00 -3,1 C 90 % 1009,3 hPa 0,0 l/m 0,0 km/h (0 Bft) N 0,00 h 0,000 mm 0,0 UV-I 0 W/m -4,4 C -3,1 C 0,1 km/h (0 Bft)
21.02.2015 00:00 -3,7 C 91 % 1008,2 hPa 0,0 l/m 0,0 km/h (0 Bft) N 0,00 h 0,000 mm 0,0 UV-I 0 W/m -4,9 C -3,7 C 0,3 km/h (0 Bft)
21.02.2015 01:00 -4,2 C 91 % 1007,0 hPa 0,0 l/m 0,0 km/h (0 Bft) N 0,00 h 0,000 mm 0,0 UV-I 0 W/m -5,3 C -4,2 C 0,0 km/h (0 Bft)
21.02.2015 02:00 -4,7 C 92 % 1006,0 hPa 0,0 l/m 0,0 km/h (0 Bft) N 0,00 h 0,000 mm 0,0 UV-I 0 W/m -5,8 C -4,7 C 0,1 km/h (0 Bft)
21.02.2015 03:00 -5,1 C 92 % 1005,2 hPa 0,0 l/m 0,1 km/h (0 Bft) N 0,00 h 0,000 mm 0,0 UV-I 0 W/m -6,2 C -5,1 C 0,6 km/h (0 Bft)
21.02.2015 04:00 -5,2 C 93 % 1004,6 hPa 0,0 l/m 0,1 km/h (0 Bft) N 0,00 h 0,000 mm 0,0 UV-I 0 W/m -6,2 C -5,2 C 0,7 km/h (0 Bft)
21.02.2015 05:00 -5,3 C 93 % 1003,7 hPa 0,0 l/m 1,2 km/h (1 Bft) N 0,00 h 0,000 mm 0,0 UV-I 0 W/m -6,3 C -5,3 C 2,4 km/h (1 Bft)
21.02.2015 06:00 -5,6 C 92 % 1003,3 hPa 0,0 l/m 0,0 km/h (0 Bft) N 0,00 h 0,000 mm 0,0 UV-I 0 W/m -6,6 C -5,6 C 0,1 km/h (0 Bft)
21.02.2015 07:00 -6,0 C 92 % 1003,3 hPa 0,0 l/m 0,9 km/h (0 Bft) N 0,00 h 0,000 mm 0,0 UV-I 9 W/m -7,1 C -6,0 C 1,9 km/h (1 Bft)
21.02.2015 08:00 -4,8 C 94 % 1003,1 hPa 0,0 l/m 0,9 km/h (0 Bft) N 0,67 h 0,000 mm 0,5 UV-I 86 W/m -5,7 C -4,8 C 1,9 km/h (1 Bft)
21.02.2015 09:00 -2,0 C 92 % 1003,0 hPa 0,0 l/m 1,0 km/h (0 Bft) N 0,97 h 0,025 mm 0,6 UV-I 108 W/m -3,2 C -2,1 C 2,5 km/h (1 Bft)
21.02.2015 10:00 1,2 C 85 % 1002,9 hPa 0,0 l/m 1,9 km/h (1 Bft) N 1,00 h 0,025 mm 0,8 UV-I 149 W/m -1,0 C 1,2 C 4,0 km/h (1 Bft)
21.02.2015 11:00 4,3 C 79 % 1002,1 hPa 0,0 l/m 3,3 km/h (1 Bft) S-SO 1,00 h 0,052 mm 1,3 UV-I 269 W/m 1,0 C 4,1 C 5,8 km/h (2 Bft)
21.02.2015 12:00 6,0 C 71 % 1001,1 hPa 0,0 l/m 11,7 km/h (2 Bft) S-SO 1,00 h 0,102 mm 1,6 UV-I 401 W/m 1,2 C 2,3 C 17,7 km/h (3 Bft)
21.02.2015 13:00 7,5 C 61 % 1000,1 hPa 0,0 l/m 11,5 km/h (2 Bft) S-SW 1,00 h 0,203 mm 1,6 UV-I 431 W/m 0,4 C 4,0 C 18,2 km/h (3 Bft)
21.02.2015 14:00 8,2 C 56 % 999,7 hPa 0,0 l/m 11,6 km/h (2 Bft) S 1,00 h 0,229 mm 1,2 UV-I 402 W/m -0,1 C 4,8 C 18,5 km/h (3 Bft)
21.02.2015 15:00 8,6 C 57 % 1000,0 hPa 0,0 l/m 7,1 km/h (2 Bft) S-SW 1,00 h 0,229 mm 0,7 UV-I 267 W/m 0,7 C 7,8 C 11,5 km/h (2 Bft)
21.02.2015 16:00 7,5 C 62 % 1000,4 hPa 0,0 l/m 4,0 km/h (1 Bft) SW 0,73 h 0,152 mm 0,0 UV-I 80 W/m 0,6 C 7,2 C 6,9 km/h (2 Bft)
21.02.2015 17:00 6,3 C 68 % 1001,0 hPa 0,0 l/m 5,3 km/h (1 Bft) W 0,00 h 0,051 mm 0,0 UV-I 14 W/m 0,9 C 5,7 C 8,5 km/h (2 Bft)
21.02.2015 18:00 4,8 C 78 % 1001,8 hPa 0,0 l/m 1,1 km/h (1 Bft) W-NW 0,00 h 0,025 mm 0,0 UV-I 0 W/m 1,3 C 4,8 C 2,6 km/h (1 Bft)
21.02.2015 19:00 3,2 C 82 % 1002,4 hPa 0,0 l/m 0,0 km/h (0 Bft) N 0,00 h 0,025 mm 0,0 UV-I 0 W/m 0,4 C 3,2 C 0,2 km/h (0 Bft)
21.02.2015 20:00 2,3 C 86 % 1002,8 hPa 0,0 l/m 0,0 km/h (0 Bft) N 0,00 h 0,000 mm 0,0 UV-I 0 W/m 0,3 C 2,3 C 0,3 km/h (0 Bft)
21.02.2015 21:00 2,0 C 87 % 1003,2 hPa 0,0 l/m 0,0 km/h (0 Bft) N 0,00 h 0,000 mm 0,0 UV-I 0 W/m 0,1 C 2,0 C 0,2 km/h (0 Bft)
21.02.2015 22:00 1,6 C 90 % 1003,5 hPa 0,0 l/m 0,8 km/h (0 Bft) N 0,00 h 0,000 mm 0,0 UV-I 0 W/m 0,0 C 1,6 C 2,3 km/h (1 Bft)
21.02.2015 23:00 1,6 C 91 % 1003,7 hPa 0,0 l/m 1,7 km/h (1 Bft) N 0,00 h 0,000 mm 0,0 UV-I 0 W/m 0,3 C 1,6 C 3,8 km/h (1 Bft)
22.02.2015 00:00 1,4 C 90 % 1003,8 hPa 0,0 l/m 0,0 km/h (0 Bft) N 0,00 h 0,000 mm 0,0 UV-I 0 W/m 0,0 C 1,4 C 0,1 km/h (0 Bft)
22.02.2015 01:00 0,8 C 91 % 1004,3 hPa 0,0 l/m 0,6 km/h (0 Bft) N 0,00 h 0,000 mm 0,0 UV-I 0 W/m -0,5 C 0,8 C 1,3 km/h (1 Bft)
22.02.2015 02:00 0,4 C 92 % 1004,8 hPa 0,0 l/m 0,1 km/h (0 Bft) N 0,00 h 0,000 mm 0,0 UV-I 0 W/m -0,7 C 0,4 C 0,6 km/h (0 Bft)
22.02.2015 03:00 0,2 C 93 % 1005,2 hPa 0,0 l/m 0,0 km/h (0 Bft) N 0,00 h 0,000 mm 0,0 UV-I 0 W/m -0,8 C 0,2 C 0,1 km/h (0 Bft)
22.02.2015 04:00 0,1 C 93 % 1005,6 hPa 0,0 l/m 0,0 km/h (0 Bft) N 0,00 h 0,000 mm 0,0 UV-I 0 W/m -0,9 C 0,1 C 0,1 km/h (0 Bft)
22.02.2015 05:00 -0,1 C 93 % 1005,8 hPa 0,0 l/m 0,0 km/h (0 Bft) N 0,00 h 0,000 mm 0,0 UV-I 0 W/m -1,1 C -0,1 C 0,1 km/h (0 Bft)
22.02.2015 06:00 -0,3 C 94 % 1006,8 hPa 0,0 l/m 0,0 km/h (0 Bft) N 0,00 h 0,000 mm 0,0 UV-I 0 W/m -1,1 C -0,3 C 0,4 km/h (0 Bft)
22.02.2015 07:00 -0,2 C 95 % 1007,5 hPa 0,0 l/m 0,0 km/h (0 Bft) N 0,00 h 0,000 mm 0,0 UV-I 24 W/m -0,9 C -0,2 C 0,0 km/h (0 Bft)
22.02.2015 08:00 0,7 C 94 % 1008,2 hPa 0,0 l/m 0,9 km/h (0 Bft) N 0,85 h 0,000 mm 0,0 UV-I 102 W/m -0,2 C 0,7 C 1,9 km/h (1 Bft)
22.02.2015 09:00 2,4 C 87 % 1009,0 hPa 0,0 l/m 2,4 km/h (1 Bft) N 1,00 h 0,051 mm 0,6 UV-I 183 W/m 0,5 C 2,5 C 4,4 km/h (1 Bft)
22.02.2015 10:00 3,7 C 80 % 1009,4 hPa 0,0 l/m 4,7 km/h (1 Bft) N 1,00 h 0,076 mm 1,0 UV-I 264 W/m 0,6 C 3,6 C 8,0 km/h (2 Bft)
22.02.2015 11:00 4,2 C 78 % 1009,8 hPa 0,0 l/m 3,8 km/h (1 Bft) N 1,00 h 0,102 mm 1,1 UV-I 242 W/m 0,7 C 4,1 C 6,4 km/h (2 Bft)
22.02.2015 12:00 4,8 C 74 % 1009,8 hPa 0,0 l/m 5,0 km/h (1 Bft) N 1,00 h 0,102 mm 1,3 UV-I 282 W/m 0,6 C 4,5 C 8,2 km/h (2 Bft)
22.02.2015 13:00 5,6 C 68 % 1009,7 hPa 0,0 l/m 6,6 km/h (2 Bft) N-NW 1,00 h 0,127 mm 1,3 UV-I 334 W/m 0,2 C 4,7 C 10,5 km/h (2 Bft)
22.02.2015 14:00 6,0 C 65 % 1009,7 hPa 0,0 l/m 7,3 km/h (2 Bft) N-NO 1,00 h 0,152 mm 1,0 UV-I 353 W/m -0,1 C 4,7 C 11,4 km/h (2 Bft)
22.02.2015 15:00 5,2 C 64 % 1010,2 hPa 0,0 l/m 4,7 km/h (1 Bft) NW 1,00 h 0,178 mm 0,6 UV-I 112 W/m -1,1 C 4,8 C 7,5 km/h (2 Bft)
22.02.2015 16:00 4,8 C 62 % 1010,5 hPa 0,0 l/m 4,2 km/h (1 Bft) N 0,77 h 0,076 mm 0,5 UV-I 86 W/m -1,8 C 4,7 C 7,0 km/h (2 Bft)
22.02.2015 17:00 4,0 C 65 % 1010,9 hPa 0,0 l/m 1,7 km/h (1 Bft) N 0,00 h 0,051 mm 0,0 UV-I 14 W/m -1,9 C 4,0 C 3,4 km/h (1 Bft)
22.02.2015 18:00 3,0 C 70 % 1011,1 hPa 0,0 l/m 0,1 km/h (0 Bft) N 0,00 h 0,000 mm 0,0 UV-I 0 W/m -2,0 C 3,0 C 0,5 km/h (0 Bft)
22.02.2015 19:00 1,2 C 76 % 1011,3 hPa 0,0 l/m 0,0 km/h (0 Bft) N 0,00 h 0,025 mm 0,0 UV-I 0 W/m -2,6 C 1,2 C 0,0 km/h (0 Bft)
22.02.2015 20:00 -0,7 C 83 % 1011,4 hPa 0,0 l/m 0,2 km/h (0 Bft) N 0,00 h 0,000 mm 0,0 UV-I 0 W/m -3,2 C -0,7 C 0,6 km/h (0 Bft)
22.02.2015 21:00 -1,7 C 87 % 1011,4 hPa 0,0 l/m 2,0 km/h (1 Bft) N 0,00 h 0,000 mm 0,0 UV-I 0 W/m -3,5 C -1,9 C 3,4 km/h (1 Bft)
22.02.2015 22:00 -2,3 C 90 % 1011,2 hPa 0,0 l/m 1,1 km/h (0 Bft) N 0,00 h 0,000 mm 0,0 UV-I 0 W/m -3,7 C -2,3 C 2,1 km/h (1 Bft)
22.02.2015 23:00 -2,7 C 90 % 1010,1 hPa 0,0 l/m 0,1 km/h (0 Bft) N 0,00 h 0,000 mm 0,0 UV-I 0 W/m -4,1 C -2,7 C 0,4 km/h (0 Bft)
Min-Datum _ 21.02.15 21.02.15 21.02.15 - 16.02.15 - - - - - 21.02.15 19.02.15 16.02.15
_ Min-Zeit 07:34 14:11 14:05 - 00:04 - - - - - 07:35 18:28 01:11
Minimum _ -6,2 C 55 % 999,5 hPa - 0,0 km/h (0 Bft) - - - - - -7,3 C -12,5 C 0,0 km/h (0 Bft)
Max-Datum _ 21.02.15 19.02.15 18.02.15 16.02.15 21.02.15 - 18.02.15 21.02.15 21.02.15 21.02.15 21.02.15 21.02.15 21.02.15
_ Max-Zeit 15:21 07:25 10:15 00:00 13:03 - 09:29 14:00 12:32 12:33 11:58 15:21 14:32
Maximum _ 8,8 C 97 % 1041,9 hPa 0,0 l/m 19,3 km/h
S-SW (3 Bft)
- 0,12 h 0,229 mm 2,1 UV-I 617 W/m 1,9 C 8,8 C 29,0 km/h
S (5 Bft)
Durchschnitt _ 0,3 C 87 % 1022,2 hPa #0,0 l/m 3,1 km/h (1 Bft) N #55:09 h #5,765 mm 1,0 UV-I 176 W/m -1,8 C -0,1 C 5,7 km/h (2 Bft)